MICAS weather

Campo di Volo "Air Folies"
Casorezzo (MI), Lombardy, Italy

Public forecast

Using degrees Celsius for public forecast. Weather courtesy of forecast.io.

Closest aviation weather report (METAR) to Campo di Volo "Air Folies"

Closest report is Malpensa International Airport, 9.3 nm (17.3 km) NW. Retrieved 2020/07/07 11:20 UTC (21 minutes ago):

LIMC 071120Z 14009KT 100V190 9999 BKN050 24/14 Q1017 NOSIG

Closest aviation forecast (TAF) to Campo di Volo "Air Folies"

Closest forecast is Malpensa International Airport, 9.3 nm (17.3 km) NW. Retrieved 2020/07/07 06:00 UTC (6 hours ago):

TAF LIMC 070500Z 0706/0812 04010KT 9999 SCT030 BECMG 0716/0718 VRB05KT